Rhodanus — PGBC — position and weather

sailwx.info

Track history (hours):
 
Tides and Currents Weather Stations Pressure Air Temp Water Temp Dewpoint Dewpoint Depression Visibility Wind Speed Wind Dir Waves Ship Positions

Rhodanus

Last reported at 2015-Sep-02 03:08 UTC. Time now 2015-Sep-03 02:36 UTC.
Position N 42°55' E 006°51'.

Length 89 m; draft 3 m.

Type: Cargo ship. MMSI: 245848000.

Date/timePositionNaut miles runAvg speedWind from/ knotsBaromVisibWave heightAir tempDewpointWater temp
2015-Sep-02 03:08N 42°55' E 006°51'5 9.2
2015-Sep-02 02:33N 42°58' E 006°58'9 9.1
2015-Sep-02 01:34N 43°01' E 007°09'9 8.9
2015-Sep-02 00:31N 43°05' E 007°21'102 4.8
2015-Sep-01 03:33N 43°50' E 009°26'9 8.7
2015-Sep-01 02:33N 43°46' E 009°15'9 8.6
2015-Sep-01 01:33N 43°43' E 009°04'9 8.8
2015-Sep-01 00:34N 43°39' E 008°53'9 8.9
2015-Aug-31 23:34N 43°35' E 008°42'9 8.9
2015-Aug-31 22:34N 43°31' E 008°31'9 9.3
2015-Aug-31 21:34N 43°27' E 008°20'9 9.4
2015-Aug-31 20:33N 43°23' E 008°08'10 9.8
2015-Aug-31 19:32N 43°19' E 007°56'10 9.8
2015-Aug-31 18:34N 43°16' E 007°43'9 9.5
2015-Aug-31 17:33N 43°13' E 007°31'10 9.7
2015-Aug-31 16:34N 43°09' E 007°18'10 9.6
2015-Aug-31 15:34N 43°06' E 007°06'9 9.3
2015-Aug-31 14:33N 43°03' E 006°54'9 8.8
2015-Aug-31 13:34N 43°00' E 006°43'10 8.6
2015-Aug-31 12:24N 42°57' E 006°30'7 8.3
2015-Aug-31 11:34N 42°56' E 006°20'17 7.3
2015-Aug-31 09:11N 43°03' E 005°59'5 7.5
2015-Aug-31 08:33N 43°06' E 005°54'1 0.9
2015-Aug-31 07:32N 43°06' E 005°53'0 0.0
2015-Aug-31 06:32N 43°06' E 005°53'0 0.0
2015-Aug-31 05:32N 43°06' E 005°53'0 0.0
2015-Aug-31 04:32N 43°06' E 005°53'0 0.0
2015-Aug-31 03:32N 43°06' E 005°53'0 0.0
2015-Aug-31 02:32N 43°06' E 005°53'0 0.0
2015-Aug-31 01:26N 43°06' E 005°53'0 0.0
2015-Aug-31 00:32N 43°06' E 005°53'0 0.0
2015-Aug-30 23:32N 43°06' E 005°53'0 0.0
2015-Aug-30 22:32N 43°06' E 005°53'0 0.0
2015-Aug-30 21:32N 43°06' E 005°53'0 0.0
2015-Aug-30 20:32N 43°06' E 005°53'0 0.0
2015-Aug-30 19:32N 43°06' E 005°53'0 0.0
2015-Aug-30 18:29N 43°06' E 005°53'0 0.0
2015-Aug-30 17:32N 43°06' E 005°53'0 0.0
2015-Aug-30 16:32N 43°06' E 005°53'0 0.0
2015-Aug-30 15:32N 43°06' E 005°53'0 0.0
2015-Aug-30 14:32N 43°06' E 005°53'0 0.0
2015-Aug-30 13:32N 43°06' E 005°53'0 0.0
2015-Aug-30 12:32N 43°06' E 005°53'0 0.0
2015-Aug-30 11:32N 43°06' E 005°53'0 0.0
2015-Aug-30 10:32N 43°06' E 005°53'0 0.0
2015-Aug-30 09:32N 43°06' E 005°53'0 0.0
2015-Aug-30 08:32N 43°06' E 005°53'0 0.0
2015-Aug-30 07:32N 43°06' E 005°53'0 0.0
2015-Aug-30 06:29N 43°06' E 005°53'0 0.0
2015-Aug-30 05:32N 43°06' E 005°53'0 0.0
2015-Aug-30 04:32N 43°06' E 005°53'0 0.0
2015-Aug-30 03:32N 43°06' E 005°53'0 0.0
2015-Aug-30 02:32N 43°06' E 005°53'0 0.0
2015-Aug-30 01:32N 43°06' E 005°53'0 0.0
2015-Aug-30 00:32N 43°06' E 005°53'0 0.0
2015-Aug-29 23:32N 43°06' E 005°53'0 0.0
2015-Aug-29 22:32N 43°06' E 005°53'0 0.0
2015-Aug-29 21:32N 43°06' E 005°53'0 0.0
2015-Aug-29 20:32N 43°06' E 005°53'0 0.0
2015-Aug-29 19:32N 43°06' E 005°53'0 0.0
2015-Aug-29 18:32N 43°06' E 005°53'0 0.0
2015-Aug-29 17:32N 43°06' E 005°53'0 0.0
2015-Aug-29 16:32N 43°06' E 005°53'0 0.0
2015-Aug-29 15:32N 43°06' E 005°53'0 0.0
2015-Aug-29 14:32N 43°06' E 005°53'0 0.0
2015-Aug-29 13:32N 43°06' E 005°53'0 0.0
2015-Aug-29 12:32N 43°06' E 005°53'0 0.0
2015-Aug-29 11:29N 43°06' E 005°53'0 0.0
2015-Aug-29 10:32N 43°06' E 005°53'0 0.0
2015-Aug-29 09:32N 43°06' E 005°53'0 0.0
2015-Aug-29 08:32N 43°06' E 005°53'0 0.0
2015-Aug-29 07:32N 43°06' E 005°53'0 0.0
2015-Aug-29 06:32N 43°06' E 005°53'0 0.0
2015-Aug-29 05:32N 43°06' E 005°53'0 0.0
2015-Aug-29 04:32N 43°06' E 005°53'0 0.0
2015-Aug-29 03:32N 43°06' E 005°53'0 0.0
2015-Aug-29 02:29N 43°06' E 005°53'0 0.0
2015-Aug-29 01:32N 43°06' E 005°53'0 0.0
2015-Aug-29 00:32N 43°06' E 005°53'0 0.0
2015-Aug-28 23:32N 43°06' E 005°53'0 0.0
2015-Aug-28 22:32N 43°06' E 005°53'0 0.0
2015-Aug-28 21:29N 43°06' E 005°53'3 2.8
2015-Aug-28 20:34N 43°05' E 005°56'3 3.4
2015-Aug-28 19:33N 43°03' E 006°00'90 8.7
2015-Aug-28 09:14N 42°04' E 007°32'8 9.3
2015-Aug-28 08:22N 41°59' E 007°41'337 9.4
2015-Aug-26 20:20N 38°24' E 013°21'8 9.5
2015-Aug-26 19:30N 38°18' E 013°28'9 9.6
2015-Aug-26 18:33N 38°12' E 013°36'9 9.2
2015-Aug-26 17:33N 38°03' E 013°41'  
2015-Aug-24 11:33N 37°59' E 013°43'1 0.8
2015-Aug-24 10:33N 37°59' E 013°44'8 8.0
2015-Aug-24 09:33N 38°07' E 013°39'8 8.4
2015-Aug-24 08:33N 38°13' E 013°32'9 8.6
2015-Aug-24 07:33N 38°20' E 013°25'9 8.7
2015-Aug-24 06:33N 38°25' E 013°17'9 8.8
2015-Aug-24 05:30N 38°31' E 013°08'  
Track history (hours):
 
Tides and Currents Weather Stations Pressure Air Temp Water Temp Dewpoint Dewpoint Depression Visibility Wind Speed Wind Dir Waves Ship Positions

Rhodanus

Last reported at 2015-Sep-02 03:08 UTC. Time now 2015-Sep-03 02:36 UTC.
Position N 42°55' E 006°51'.

Length 89 m; draft 3 m.

Type: Cargo ship. MMSI: 245848000.

Date/timePositionNaut miles runAvg speedWind from/ knotsBaromVisibWave heightAir tempDewpointWater temp
2015-Sep-02 03:08N 42°55' E 006°51'5 9.2
2015-Sep-02 02:33N 42°58' E 006°58'9 9.1
2015-Sep-02 01:34N 43°01' E 007°09'9 8.9
2015-Sep-02 00:31N 43°05' E 007°21'102 4.8
2015-Sep-01 03:33N 43°50' E 009°26'9 8.7
2015-Sep-01 02:33N 43°46' E 009°15'9 8.6
2015-Sep-01 01:33N 43°43' E 009°04'9 8.8
2015-Sep-01 00:34N 43°39' E 008°53'9 8.9
2015-Aug-31 23:34N 43°35' E 008°42'9 8.9
2015-Aug-31 22:34N 43°31' E 008°31'9 9.3
2015-Aug-31 21:34N 43°27' E 008°20'9 9.4
2015-Aug-31 20:33N 43°23' E 008°08'10 9.8
2015-Aug-31 19:32N 43°19' E 007°56'10 9.8
2015-Aug-31 18:34N 43°16' E 007°43'9 9.5
2015-Aug-31 17:33N 43°13' E 007°31'10 9.7
2015-Aug-31 16:34N 43°09' E 007°18'10 9.6
2015-Aug-31 15:34N 43°06' E 007°06'9 9.3
2015-Aug-31 14:33N 43°03' E 006°54'9 8.8
2015-Aug-31 13:34N 43°00' E 006°43'10 8.6
2015-Aug-31 12:24N 42°57' E 006°30'7 8.3
2015-Aug-31 11:34N 42°56' E 006°20'17 7.3
2015-Aug-31 09:11N 43°03' E 005°59'5 7.5
2015-Aug-31 08:33N 43°06' E 005°54'1 0.9
2015-Aug-31 07:32N 43°06' E 005°53'0 0.0
2015-Aug-31 06:32N 43°06' E 005°53'0 0.0
2015-Aug-31 05:32N 43°06' E 005°53'0 0.0
2015-Aug-31 04:32N 43°06' E 005°53'0 0.0
2015-Aug-31 03:32N 43°06' E 005°53'0 0.0
2015-Aug-31 02:32N 43°06' E 005°53'0 0.0
2015-Aug-31 01:26N 43°06' E 005°53'0 0.0
2015-Aug-31 00:32N 43°06' E 005°53'0 0.0
2015-Aug-30 23:32N 43°06' E 005°53'0 0.0
2015-Aug-30 22:32N 43°06' E 005°53'0 0.0
2015-Aug-30 21:32N 43°06' E 005°53'0 0.0
2015-Aug-30 20:32N 43°06' E 005°53'0 0.0
2015-Aug-30 19:32N 43°06' E 005°53'0 0.0
2015-Aug-30 18:29N 43°06' E 005°53'0 0.0
2015-Aug-30 17:32N 43°06' E 005°53'0 0.0
2015-Aug-30 16:32N 43°06' E 005°53'0 0.0
2015-Aug-30 15:32N 43°06' E 005°53'0 0.0
2015-Aug-30 14:32N 43°06' E 005°53'0 0.0
2015-Aug-30 13:32N 43°06' E 005°53'0 0.0
2015-Aug-30 12:32N 43°06' E 005°53'0 0.0
2015-Aug-30 11:32N 43°06' E 005°53'0 0.0
2015-Aug-30 10:32N 43°06' E 005°53'0 0.0
2015-Aug-30 09:32N 43°06' E 005°53'0 0.0
2015-Aug-30 08:32N 43°06' E 005°53'0 0.0
2015-Aug-30 07:32N 43°06' E 005°53'0 0.0
2015-Aug-30 06:29N 43°06' E 005°53'0 0.0
2015-Aug-30 05:32N 43°06' E 005°53'0 0.0
2015-Aug-30 04:32N 43°06' E 005°53'0 0.0
2015-Aug-30 03:32N 43°06' E 005°53'0 0.0
2015-Aug-30 02:32N 43°06' E 005°53'0 0.0
2015-Aug-30 01:32N 43°06' E 005°53'0 0.0
2015-Aug-30 00:32N 43°06' E 005°53'0 0.0
2015-Aug-29 23:32N 43°06' E 005°53'0 0.0
2015-Aug-29 22:32N 43°06' E 005°53'0 0.0
2015-Aug-29 21:32N 43°06' E 005°53'0 0.0
2015-Aug-29 20:32N 43°06' E 005°53'0 0.0
2015-Aug-29 19:32N 43°06' E 005°53'0 0.0
2015-Aug-29 18:32N 43°06' E 005°53'0 0.0
2015-Aug-29 17:32N 43°06' E 005°53'0 0.0
2015-Aug-29 16:32N 43°06' E 005°53'0 0.0
2015-Aug-29 15:32N 43°06' E 005°53'0 0.0
2015-Aug-29 14:32N 43°06' E 005°53'0 0.0
2015-Aug-29 13:32N 43°06' E 005°53'0 0.0
2015-Aug-29 12:32N 43°06' E 005°53'0 0.0
2015-Aug-29 11:29N 43°06' E 005°53'0 0.0
2015-Aug-29 10:32N 43°06' E 005°53'0 0.0
2015-Aug-29 09:32N 43°06' E 005°53'0 0.0
2015-Aug-29 08:32N 43°06' E 005°53'0 0.0
2015-Aug-29 07:32N 43°06' E 005°53'0 0.0
2015-Aug-29 06:32N 43°06' E 005°53'0 0.0
2015-Aug-29 05:32N 43°06' E 005°53'0 0.0
2015-Aug-29 04:32N 43°06' E 005°53'0 0.0
2015-Aug-29 03:32N 43°06' E 005°53'0 0.0
2015-Aug-29 02:29N 43°06' E 005°53'0 0.0
2015-Aug-29 01:32N 43°06' E 005°53'0 0.0
2015-Aug-29 00:32N 43°06' E 005°53'0 0.0
2015-Aug-28 23:32N 43°06' E 005°53'0 0.0
2015-Aug-28 22:32N 43°06' E 005°53'0 0.0
2015-Aug-28 21:29N 43°06' E 005°53'3 2.8
2015-Aug-28 20:34N 43°05' E 005°56'3 3.4
2015-Aug-28 19:33N 43°03' E 006°00'90 8.7
2015-Aug-28 09:14N 42°04' E 007°32'8 9.3
2015-Aug-28 08:22N 41°59' E 007°41'337 9.4
2015-Aug-26 20:20N 38°24' E 013°21'8 9.5
2015-Aug-26 19:30N 38°18' E 013°28'9 9.6
2015-Aug-26 18:33N 38°12' E 013°36'9 9.2
2015-Aug-26 17:33N 38°03' E 013°41'  
2015-Aug-24 11:33N 37°59' E 013°43'1 0.8
2015-Aug-24 10:33N 37°59' E 013°44'8 8.0
2015-Aug-24 09:33N 38°07' E 013°39'8 8.4
2015-Aug-24 08:33N 38°13' E 013°32'9 8.6
2015-Aug-24 07:33N 38°20' E 013°25'9 8.7
2015-Aug-24 06:33N 38°25' E 013°17'9 8.8
2015-Aug-24 05:30N 38°31' E 013°08'  

Dump ship's entire track history